sensor_id;sensor_type;location;lat;lon;timestamp;pressure;altitude;pressure_sealevel;temperature;humidity
14790;BME280;7486;51.010;10.366;2022-09-01T00:01:20;98785.88;;;11.44;56.67
14790;BME280;7486;51.010;10.366;2022-09-01T00:03:47;98791.59;;;11.48;56.69
14790;BME280;7486;51.010;10.366;2022-09-01T00:06:15;98802.09;;;11.62;56.65
14790;BME280;7486;51.010;10.366;2022-09-01T00:08:42;98776.06;;;11.38;56.56
14790;BME280;7486;51.010;10.366;2022-09-01T00:11:08;98751.88;;;11.20;56.80
14790;BME280;7486;51.010;10.366;2022-09-01T00:13:35;98765.53;;;11.17;57.44
14790;BME280;7486;51.010;10.366;2022-09-01T00:16:02;98771.50;;;11.26;56.56
14790;BME280;7486;51.010;10.366;2022-09-01T00:18:29;98740.34;;;10.93;56.72
14790;BME280;7486;51.010;10.366;2022-09-01T00:20:56;98783.94;;;11.25;57.17
14790;BME280;7486;51.010;10.366;2022-09-01T00:23:26;98815.66;;;11.40;58.02
14790;BME280;7486;51.010;10.366;2022-09-01T00:25:53;98791.94;;;11.32;57.34
14790;BME280;7486;51.010;10.366;2022-09-01T00:28:20;98838.59;;;11.54;57.48
14790;BME280;7486;51.010;10.366;2022-09-01T00:30:52;98834.16;;;11.61;57.11
14790;BME280;7486;51.010;10.366;2022-09-01T00:33:20;98752.94;;;11.19;57.39
14790;BME280;7486;51.010;10.366;2022-09-01T00:35:47;98785.41;;;11.34;57.67
14790;BME280;7486;51.010;10.366;2022-09-01T00:38:13;98783.66;;;10.79;59.08
14790;BME280;7486;51.010;10.366;2022-09-01T00:40:40;98841.41;;;10.84;59.55
14790;BME280;7486;51.010;10.366;2022-09-01T00:43:16;98812.28;;;10.62;60.37
14790;BME280;7486;51.010;10.366;2022-09-01T00:45:43;98775.03;;;10.43;59.32
14790;BME280;7486;51.010;10.366;2022-09-01T00:48:10;98776.59;;;10.58;59.20
14790;BME280;7486;51.010;10.366;2022-09-01T00:50:38;98688.41;;;10.09;58.92
14790;BME280;7486;51.010;10.366;2022-09-01T00:53:06;98766.63;;;10.60;59.02
14790;BME280;7486;51.010;10.366;2022-09-01T00:55:35;98782.38;;;10.68;59.30
14790;BME280;7486;51.010;10.366;2022-09-01T00:58:04;98799.38;;;10.81;59.26
14790;BME280;7486;51.010;10.366;2022-09-01T01:00:48;98767.41;;;10.54;59.47
14790;BME280;7486;51.010;10.366;2022-09-01T01:03:16;98774.81;;;10.65;59.48
14790;BME280;7486;51.010;10.366;2022-09-01T01:05:48;98796.88;;;10.72;59.45
14790;BME280;7486;51.010;10.366;2022-09-01T01:08:16;98782.00;;;10.71;59.32
14790;BME280;7486;51.010;10.366;2022-09-01T01:10:44;98773.50;;;10.55;59.60
14790;BME280;7486;51.010;10.366;2022-09-01T01:13:14;98783.78;;;10.64;59.50
14790;BME280;7486;51.010;10.366;2022-09-01T01:15:43;98821.44;;;10.88;59.92
14790;BME280;7486;51.010;10.366;2022-09-01T01:18:11;98792.88;;;10.55;60.25
14790;BME280;7486;51.010;10.366;2022-09-01T01:20:38;98826.50;;;10.83;60.21
14790;BME280;7486;51.010;10.366;2022-09-01T01:23:19;98767.41;;;10.54;59.68
14790;BME280;7486;51.010;10.366;2022-09-01T01:28:22;98830.38;;;10.80;60.55
14790;BME280;7486;51.010;10.366;2022-09-01T01:30:54;98764.72;;;10.27;61.07
14790;BME280;7486;51.010;10.366;2022-09-01T01:33:25;98792.94;;;10.41;61.39
14790;BME280;7486;51.010;10.366;2022-09-01T01:35:53;98820.47;;;10.46;61.72
14790;BME280;7486;51.010;10.366;2022-09-01T01:38:19;98826.34;;;10.42;62.11
14790;BME280;7486;51.010;10.366;2022-09-01T01:40:49;98807.88;;;10.27;62.06
14790;BME280;7486;51.010;10.366;2022-09-01T01:43:16;98763.28;;;10.03;61.94
14790;BME280;7486;51.010;10.366;2022-09-01T01:45:43;98768.69;;;10.16;61.71
14790;BME280;7486;51.010;10.366;2022-09-01T01:48:10;98792.50;;;10.16;61.30
14790;BME280;7486;51.010;10.366;2022-09-01T01:50:38;98750.91;;;9.89;62.19
14790;BME280;7486;51.010;10.366;2022-09-01T01:53:06;98818.59;;;10.40;61.30
14790;BME280;7486;51.010;10.366;2022-09-01T01:55:39;98766.66;;;9.97;61.31
14790;BME280;7486;51.010;10.366;2022-09-01T01:58:06;98787.97;;;10.10;61.27
14790;BME280;7486;51.010;10.366;2022-09-01T02:00:33;98783.28;;;10.12;61.50
14790;BME280;7486;51.010;10.366;2022-09-01T02:03:00;98790.97;;;10.28;61.14
14790;BME280;7486;51.010;10.366;2022-09-01T02:05:31;98823.00;;;10.33;61.54
14790;BME280;7486;51.010;10.366;2022-09-01T02:08:01;98785.63;;;10.00;61.81
14790;BME280;7486;51.010;10.366;2022-09-01T02:10:31;98710.81;;;9.49;61.90
14790;BME280;7486;51.010;10.366;2022-09-01T02:13:00;98816.56;;;10.21;61.89
14790;BME280;7486;51.010;10.366;2022-09-01T02:15:27;98771.56;;;9.79;62.48
14790;BME280;7486;51.010;10.366;2022-09-01T02:17:54;98737.91;;;9.51;63.14
14790;BME280;7486;51.010;10.366;2022-09-01T02:20:21;98774.31;;;9.70;63.23
14790;BME280;7486;51.010;10.366;2022-09-01T02:22:48;98730.53;;;9.47;62.82
14790;BME280;7486;51.010;10.366;2022-09-01T02:25:15;98771.31;;;9.59;63.37
14790;BME280;7486;51.010;10.366;2022-09-01T02:27:46;98803.72;;;9.61;63.93
14790;BME280;7486;51.010;10.366;2022-09-01T02:30:13;98748.59;;;9.43;63.39
14790;BME280;7486;51.010;10.366;2022-09-01T02:32:40;98758.84;;;9.53;63.07
14790;BME280;7486;51.010;10.366;2022-09-01T02:35:08;98772.06;;;9.67;62.42
14790;BME280;7486;51.010;10.366;2022-09-01T02:37:37;98778.03;;;9.40;63.59
14790;BME280;7486;51.010;10.366;2022-09-01T02:40:06;98751.06;;;9.15;63.38
14790;BME280;7486;51.010;10.366;2022-09-01T02:42:36;98776.38;;;9.39;63.37
14790;BME280;7486;51.010;10.366;2022-09-01T02:45:03;98744.22;;;9.36;62.83
14790;BME280;7486;51.010;10.366;2022-09-01T02:47:30;98752.50;;;9.47;62.67
14790;BME280;7486;51.010;10.366;2022-09-01T02:49:57;98811.78;;;9.89;62.75
14790;BME280;7486;51.010;10.366;2022-09-01T02:52:24;98780.81;;;9.68;62.41
14790;BME280;7486;51.010;10.366;2022-09-01T02:54:51;98757.09;;;9.60;62.04
14790;BME280;7486;51.010;10.366;2022-09-01T02:57:17;98728.88;;;9.46;62.17
14790;BME280;7486;51.010;10.366;2022-09-01T02:59:44;98692.81;;;9.23;62.31
14790;BME280;7486;51.010;10.366;2022-09-01T03:02:11;98736.63;;;9.47;62.78
14790;BME280;7486;51.010;10.366;2022-09-01T03:04:37;98794.34;;;9.44;64.07
14790;BME280;7486;51.010;10.366;2022-09-01T03:07:05;98756.88;;;9.11;64.16
14790;BME280;7486;51.010;10.366;2022-09-01T03:09:32;98753.25;;;9.12;64.20
14790;BME280;7486;51.010;10.366;2022-09-01T03:11:59;98773.19;;;9.29;63.85
14790;BME280;7486;51.010;10.366;2022-09-01T03:14:26;98739.28;;;9.18;63.66
14790;BME280;7486;51.010;10.366;2022-09-01T03:16:53;98741.88;;;8.97;63.95
14790;BME280;7486;51.010;10.366;2022-09-01T03:19:20;98791.69;;;9.14;64.70
14790;BME280;7486;51.010;10.366;2022-09-01T03:21:46;98764.75;;;8.90;64.84
14790;BME280;7486;51.010;10.366;2022-09-01T03:24:17;98780.50;;;9.12;64.60
14790;BME280;7486;51.010;10.366;2022-09-01T03:26:45;98819.22;;;9.20;65.81
14790;BME280;7486;51.010;10.366;2022-09-01T03:29:17;98802.91;;;9.02;65.76
14790;BME280;7486;51.010;10.366;2022-09-01T03:31:44;98758.19;;;8.86;65.13
14790;BME280;7486;51.010;10.366;2022-09-01T03:34:11;98817.25;;;9.37;64.66
14790;BME280;7486;51.010;10.366;2022-09-01T03:36:43;98754.44;;;8.95;63.87
14790;BME280;7486;51.010;10.366;2022-09-01T03:39:10;98768.56;;;9.02;63.97
14790;BME280;7486;51.010;10.366;2022-09-01T03:41:42;98783.31;;;9.11;64.04
14790;BME280;7486;51.010;10.366;2022-09-01T03:44:10;98804.91;;;9.29;63.79
14790;BME280;7486;51.010;10.366;2022-09-01T03:46:37;98764.38;;;8.93;64.84
14790;BME280;7486;51.010;10.366;2022-09-01T03:49:04;98795.34;;;8.99;64.54
14790;BME280;7486;51.010;10.366;2022-09-01T03:51:31;98806.00;;;8.91;65.53
14790;BME280;7486;51.010;10.366;2022-09-01T03:53:59;98784.53;;;8.56;66.17
14790;BME280;7486;51.010;10.366;2022-09-01T03:56:27;98747.38;;;8.29;65.85
14790;BME280;7486;51.010;10.366;2022-09-01T03:58:56;98819.38;;;8.75;66.11
14790;BME280;7486;51.010;10.366;2022-09-01T04:01:25;98720.78;;;8.30;65.68
14790;BME280;7486;51.010;10.366;2022-09-01T04:03:53;98748.03;;;8.45;64.97
14790;BME280;7486;51.010;10.366;2022-09-01T04:06:23;98733.53;;;8.41;64.72
14790;BME280;7486;51.010;10.366;2022-09-01T04:08:51;98799.63;;;8.85;64.54
14790;BME280;7486;51.010;10.366;2022-09-01T04:11:19;98787.75;;;8.81;64.12
14790;BME280;7486;51.010;10.366;2022-09-01T04:13:47;98776.94;;;8.76;64.30
14790;BME280;7486;51.010;10.366;2022-09-01T04:16:19;98821.69;;;9.07;64.18
14790;BME280;7486;51.010;10.366;2022-09-01T04:18:46;98788.31;;;8.91;64.22
14790;BME280;7486;51.010;10.366;2022-09-01T04:21:13;98765.63;;;8.67;64.29
14790;BME280;7486;51.010;10.366;2022-09-01T04:23:40;98799.09;;;8.90;64.21
14790;BME280;7486;51.010;10.366;2022-09-01T04:26:11;98816.94;;;9.02;64.29
14790;BME280;7486;51.010;10.366;2022-09-01T04:28:40;98781.38;;;8.61;65.04
14790;BME280;7486;51.010;10.366;2022-09-01T04:31:09;98812.53;;;8.65;65.64
14790;BME280;7486;51.010;10.366;2022-09-01T04:33:37;98809.50;;;8.54;66.20
14790;BME280;7486;51.010;10.366;2022-09-01T04:36:14;98795.81;;;8.50;66.77
14790;BME280;7486;51.010;10.366;2022-09-01T04:38:41;98798.66;;;8.49;65.87
14790;BME280;7486;51.010;10.366;2022-09-01T04:41:08;98741.38;;;8.12;65.98
14790;BME280;7486;51.010;10.366;2022-09-01T04:43:35;98749.69;;;8.01;65.96
14790;BME280;7486;51.010;10.366;2022-09-01T04:46:02;98779.13;;;7.90;67.43
14790;BME280;7486;51.010;10.366;2022-09-01T04:48:30;98763.19;;;7.83;67.76
14790;BME280;7486;51.010;10.366;2022-09-01T04:50:56;98781.31;;;7.78;68.71
14790;BME280;7486;51.010;10.366;2022-09-01T04:53:25;98774.28;;;7.70;69.04
14790;BME280;7486;51.010;10.366;2022-09-01T04:55:54;98818.28;;;8.01;68.68
14790;BME280;7486;51.010;10.366;2022-09-01T04:58:23;98829.22;;;8.20;68.42
14790;BME280;7486;51.010;10.366;2022-09-01T05:00:49;98787.00;;;7.98;67.92
14790;BME280;7486;51.010;10.366;2022-09-01T05:03:18;98824.00;;;8.35;67.25
14790;BME280;7486;51.010;10.366;2022-09-01T05:05:52;98774.69;;;8.13;66.96
14790;BME280;7486;51.010;10.366;2022-09-01T05:08:20;98784.16;;;8.22;66.89
14790;BME280;7486;51.010;10.366;2022-09-01T05:10:52;98820.06;;;8.54;66.94
14790;BME280;7486;51.010;10.366;2022-09-01T05:13:30;98748.31;;;8.13;67.23
14790;BME280;7486;51.010;10.366;2022-09-01T05:16:03;98826.97;;;8.55;67.27
14790;BME280;7486;51.010;10.366;2022-09-01T05:18:31;98795.44;;;8.39;66.68
14790;BME280;7486;51.010;10.366;2022-09-01T05:21:04;98832.06;;;8.56;67.32
14790;BME280;7486;51.010;10.366;2022-09-01T05:23:31;98777.44;;;8.42;67.17
14790;BME280;7486;51.010;10.366;2022-09-01T05:25:58;98764.28;;;8.34;66.88
14790;BME280;7486;51.010;10.366;2022-09-01T05:28:25;98781.84;;;8.27;68.21
14790;BME280;7486;51.010;10.366;2022-09-01T05:30:52;98797.09;;;8.54;67.69
14790;BME280;7486;51.010;10.366;2022-09-01T05:33:20;98792.03;;;8.67;67.27
14790;BME280;7486;51.010;10.366;2022-09-01T05:35:56;98846.19;;;9.15;67.33
14790;BME280;7486;51.010;10.366;2022-09-01T05:38:23;98747.44;;;8.73;66.86
14790;BME280;7486;51.010;10.366;2022-09-01T05:40:58;98786.97;;;8.95;67.70
14790;BME280;7486;51.010;10.366;2022-09-01T05:43:25;98808.00;;;9.18;67.71
14790;BME280;7486;51.010;10.366;2022-09-01T05:45:52;98805.03;;;9.36;67.20
14790;BME280;7486;51.010;10.366;2022-09-01T05:48:32;98853.91;;;9.90;67.44
14790;BME280;7486;51.010;10.366;2022-09-01T05:50:58;98779.06;;;9.75;66.88
14790;BME280;7486;51.010;10.366;2022-09-01T05:53:26;98831.97;;;10.32;66.88
14790;BME280;7486;51.010;10.366;2022-09-01T05:55:53;98664.41;;;9.47;66.35
14790;BME280;7486;51.010;10.366;2022-09-01T05:58:20;98790.09;;;10.42;67.06
14790;BME280;7486;51.010;10.366;2022-09-01T06:00:47;98782.56;;;10.67;66.00
14790;BME280;7486;51.010;10.366;2022-09-01T06:03:14;98783.44;;;10.74;65.30
14790;BME280;7486;51.010;10.366;2022-09-01T06:05:44;98798.16;;;10.83;64.29
14790;BME280;7486;51.010;10.366;2022-09-01T06:08:11;98819.13;;;11.06;64.12
14790;BME280;7486;51.010;10.366;2022-09-01T06:10:38;98823.69;;;11.18;64.52
14790;BME280;7486;51.010;10.366;2022-09-01T06:13:06;98783.34;;;10.89;65.83
14790;BME280;7486;51.010;10.366;2022-09-01T06:15:36;98811.84;;;11.14;65.64
14790;BME280;7486;51.010;10.366;2022-09-01T06:18:05;98776.00;;;10.91;65.97
14790;BME280;7486;51.010;10.366;2022-09-01T06:20:38;98833.63;;;11.51;65.43
14790;BME280;7486;51.010;10.366;2022-09-01T06:23:06;98778.91;;;11.37;64.54
14790;BME280;7486;51.010;10.366;2022-09-01T06:25:35;98824.91;;;12.04;61.95
14790;BME280;7486;51.010;10.366;2022-09-01T06:28:03;98762.41;;;12.08;60.88
14790;BME280;7486;51.010;10.366;2022-09-01T06:30:30;98788.56;;;12.44;60.27
14790;BME280;7486;51.010;10.366;2022-09-01T06:33:02;98803.13;;;12.61;60.52
14790;BME280;7486;51.010;10.366;2022-09-01T06:35:30;98790.63;;;12.55;61.47
14790;BME280;7486;51.010;10.366;2022-09-01T06:37:57;98798.03;;;12.66;61.27
14790;BME280;7486;51.010;10.366;2022-09-01T06:40:34;98835.56;;;13.22;58.97
14790;BME280;7486;51.010;10.366;2022-09-01T06:43:01;98812.28;;;13.05;60.02
14790;BME280;7486;51.010;10.366;2022-09-01T06:45:28;98810.97;;;13.40;58.93
14790;BME280;7486;51.010;10.366;2022-09-01T06:47:55;98783.66;;;13.00;59.24
14790;BME280;7486;51.010;10.366;2022-09-01T06:50:26;98804.81;;;13.40;58.33
14790;BME280;7486;51.010;10.366;2022-09-01T06:53:14;98813.84;;;13.45;58.18
14790;BME280;7486;51.010;10.366;2022-09-01T06:56:03;98859.28;;;13.37;57.49
14790;BME280;7486;51.010;10.366;2022-09-01T06:58:31;98783.88;;;12.86;59.22
14790;BME280;7486;51.010;10.366;2022-09-01T07:00:58;98806.81;;;12.87;59.22
14790;BME280;7486;51.010;10.366;2022-09-01T07:03:24;98791.88;;;12.66;59.05
14790;BME280;7486;51.010;10.366;2022-09-01T07:06:13;98851.78;;;12.68;59.73
14790;BME280;7486;51.010;10.366;2022-09-01T07:09:15;98831.69;;;12.27;60.42
14790;BME280;7486;51.010;10.366;2022-09-01T07:12:15;98799.34;;;11.97;61.82
14790;BME280;7486;51.010;10.366;2022-09-01T07:14:57;98822.69;;;12.21;61.63
14790;BME280;7486;51.010;10.366;2022-09-01T07:17:49;98795.06;;;12.09;60.80
14790;BME280;7486;51.010;10.366;2022-09-01T07:20:21;98798.75;;;12.01;61.10
14790;BME280;7486;51.010;10.366;2022-09-01T07:22:50;98817.94;;;12.03;61.96
14790;BME280;7486;51.010;10.366;2022-09-01T07:25:37;98799.59;;;12.02;61.52
14790;BME280;7486;51.010;10.366;2022-09-01T07:28:32;98795.31;;;12.27;60.72
14790;BME280;7486;51.010;10.366;2022-09-01T07:31:04;98782.44;;;12.24;60.69
14790;BME280;7486;51.010;10.366;2022-09-01T07:33:52;98867.06;;;12.47;61.72
14790;BME280;7486;51.010;10.366;2022-09-01T07:36:20;98800.44;;;12.15;60.95
14790;BME280;7486;51.010;10.366;2022-09-01T07:38:55;98818.22;;;12.28;61.27
14790;BME280;7486;51.010;10.366;2022-09-01T07:41:54;98810.22;;;12.15;61.48
14790;BME280;7486;51.010;10.366;2022-09-01T07:45:01;98824.75;;;12.39;61.48
14790;BME280;7486;51.010;10.366;2022-09-01T07:47:55;98820.69;;;12.49;60.74
14790;BME280;7486;51.010;10.366;2022-09-01T07:50:22;98820.50;;;12.57;60.95
14790;BME280;7486;51.010;10.366;2022-09-01T07:53:07;98861.81;;;12.99;60.43
14790;BME280;7486;51.010;10.366;2022-09-01T07:55:38;98843.19;;;12.93;60.04
14790;BME280;7486;51.010;10.366;2022-09-01T07:58:05;98878.97;;;13.10;60.40
14790;BME280;7486;51.010;10.366;2022-09-01T08:00:32;98804.94;;;12.74;59.77
14790;BME280;7486;51.010;10.366;2022-09-01T08:03:04;98796.56;;;12.57;60.15
14790;BME280;7486;51.010;10.366;2022-09-01T08:05:32;98814.97;;;12.79;59.23
14790;BME280;7486;51.010;10.366;2022-09-01T08:08:00;98827.66;;;12.96;59.06
14790;BME280;7486;51.010;10.366;2022-09-01T08:10:31;98818.00;;;13.15;58.74
14790;BME280;7486;51.010;10.366;2022-09-01T08:12:58;98861.09;;;13.50;58.44
14790;BME280;7486;51.010;10.366;2022-09-01T08:15:25;98809.38;;;13.19;57.76
14790;BME280;7486;51.010;10.366;2022-09-01T08:18:12;98809.53;;;13.44;57.98
14790;BME280;7486;51.010;10.366;2022-09-01T08:20:44;98871.22;;;13.92;57.74
14790;BME280;7486;51.010;10.366;2022-09-01T08:23:29;98842.88;;;14.04;56.90
14790;BME280;7486;51.010;10.366;2022-09-01T08:25:57;98859.25;;;14.08;56.67
14790;BME280;7486;51.010;10.366;2022-09-01T08:28:23;98822.53;;;13.79;56.49
14790;BME280;7486;51.010;10.366;2022-09-01T08:30:53;98818.97;;;13.91;56.78
14790;BME280;7486;51.010;10.366;2022-09-01T08:33:22;98815.91;;;14.25;55.46
14790;BME280;7486;51.010;10.366;2022-09-01T08:35:49;98812.66;;;14.55;54.68
14790;BME280;7486;51.010;10.366;2022-09-01T08:38:17;98871.63;;;15.14;55.12
14790;BME280;7486;51.010;10.366;2022-09-01T08:40:51;98841.00;;;14.99;53.91
14790;BME280;7486;51.010;10.366;2022-09-01T08:46:12;98811.22;;;15.02;53.97
14790;BME280;7486;51.010;10.366;2022-09-01T08:49:29;98871.03;;;15.73;52.38
14790;BME280;7486;51.010;10.366;2022-09-01T08:52:29;98787.81;;;15.22;52.48
14790;BME280;7486;51.010;10.366;2022-09-01T08:55:18;98868.91;;;15.82;51.42
14790;BME280;7486;51.010;10.366;2022-09-01T08:57:47;98812.81;;;15.64;50.74
14790;BME280;7486;51.010;10.366;2022-09-01T09:00:26;98826.81;;;15.96;51.37
14790;BME280;7486;51.010;10.366;2022-09-01T09:06:01;98861.53;;;16.55;50.12
14790;BME280;7486;51.010;10.366;2022-09-01T09:14:25;98865.56;;;16.88;48.79
14790;BME280;7486;51.010;10.366;2022-09-01T09:16:55;98866.75;;;16.92;49.03
14790;BME280;7486;51.010;10.366;2022-09-01T09:21:57;98862.91;;;17.34;47.85
14790;BME280;7486;51.010;10.366;2022-09-01T09:27:04;98819.50;;;17.32;47.02
14790;BME280;7486;51.010;10.366;2022-09-01T09:29:32;98802.53;;;17.15;48.01
14790;BME280;7486;51.010;10.366;2022-09-01T09:32:08;98784.47;;;16.87;48.66
14790;BME280;7486;51.010;10.366;2022-09-01T09:34:55;98795.66;;;16.96;48.12
14790;BME280;7486;51.010;10.366;2022-09-01T09:40:06;98846.88;;;17.22;47.28
14790;BME280;7486;51.010;10.366;2022-09-01T09:42:41;98828.09;;;17.34;47.59
14790;BME280;7486;51.010;10.366;2022-09-01T09:45:22;98796.66;;;17.41;46.81
14790;BME280;7486;51.010;10.366;2022-09-01T09:47:50;98841.97;;;17.43;46.66
14790;BME280;7486;51.010;10.366;2022-09-01T09:50:27;98840.88;;;17.55;47.30
14790;BME280;7486;51.010;10.366;2022-09-01T09:58:39;98837.41;;;17.95;45.92
14790;BME280;7486;51.010;10.366;2022-09-01T10:03:42;98835.28;;;17.68;46.13
14790;BME280;7486;51.010;10.366;2022-09-01T10:06:32;98815.22;;;17.83;45.61
14790;BME280;7486;51.010;10.366;2022-09-01T10:09:08;98790.78;;;17.67;44.66
14790;BME280;7486;51.010;10.366;2022-09-01T10:11:42;98832.84;;;18.07;44.38
14790;BME280;7486;51.010;10.366;2022-09-01T10:14:44;98832.97;;;18.00;44.58
14790;BME280;7486;51.010;10.366;2022-09-01T10:17:29;98785.53;;;17.72;43.72
14790;BME280;7486;51.010;10.366;2022-09-01T10:20:02;98728.06;;;17.40;44.63
14790;BME280;7486;51.010;10.366;2022-09-01T10:22:30;98825.47;;;18.14;43.38
14790;BME280;7486;51.010;10.366;2022-09-01T10:24:59;98825.53;;;18.19;42.49
14790;BME280;7486;51.010;10.366;2022-09-01T10:27:31;98807.59;;;17.91;44.37
14790;BME280;7486;51.010;10.366;2022-09-01T10:30:13;98785.19;;;17.57;44.24
14790;BME280;7486;51.010;10.366;2022-09-01T10:32:57;98813.88;;;17.45;45.36
14790;BME280;7486;51.010;10.366;2022-09-01T10:35:41;98748.78;;;17.45;44.35
14790;BME280;7486;51.010;10.366;2022-09-01T10:38:18;98777.88;;;17.93;41.98
14790;BME280;7486;51.010;10.366;2022-09-01T10:40:50;98820.44;;;17.89;42.33
14790;BME280;7486;51.010;10.366;2022-09-01T10:43:42;98811.34;;;17.90;43.38
14790;BME280;7486;51.010;10.366;2022-09-01T10:49:18;98745.72;;;17.93;42.89
14790;BME280;7486;51.010;10.366;2022-09-01T10:51:55;98752.78;;;17.42;42.69
14790;BME280;7486;51.010;10.366;2022-09-01T11:08:46;98819.81;;;17.99;42.72
14790;BME280;7486;51.010;10.366;2022-09-01T11:11:33;98773.44;;;17.07;43.38
14790;BME280;7486;51.010;10.366;2022-09-01T11:14:18;98811.13;;;17.29;43.45
14790;BME280;7486;51.010;10.366;2022-09-01T11:17:21;98815.44;;;17.06;44.75
14790;BME280;7486;51.010;10.366;2022-09-01T11:19:53;98809.97;;;17.13;44.01
14790;BME280;7486;51.010;10.366;2022-09-01T11:22:30;98762.97;;;16.94;44.04
14790;BME280;7486;51.010;10.366;2022-09-01T11:28:08;98804.34;;;17.89;43.18
14790;BME280;7486;51.010;10.366;2022-09-01T11:41:32;98810.75;;;17.48;41.75
14790;BME280;7486;51.010;10.366;2022-09-01T11:44:01;98758.13;;;17.31;40.95
14790;BME280;7486;51.010;10.366;2022-09-01T11:46:33;98795.19;;;18.02;39.20
14790;BME280;7486;51.010;10.366;2022-09-01T11:49:06;98777.88;;;18.38;40.67
14790;BME280;7486;51.010;10.366;2022-09-01T11:51:45;98732.34;;;18.26;39.80
14790;BME280;7486;51.010;10.366;2022-09-01T11:54:13;98788.59;;;19.04;37.24
14790;BME280;7486;51.010;10.366;2022-09-01T11:56:41;98752.41;;;19.07;37.10
14790;BME280;7486;51.010;10.366;2022-09-01T11:59:07;98755.75;;;18.97;37.57
14790;BME280;7486;51.010;10.366;2022-09-01T12:01:36;98731.97;;;19.06;38.29
14790;BME280;7486;51.010;10.366;2022-09-01T12:04:18;98786.69;;;20.08;35.62
14790;BME280;7486;51.010;10.366;2022-09-01T12:06:55;98725.28;;;20.00;35.69
14790;BME280;7486;51.010;10.366;2022-09-01T12:09:32;98770.38;;;20.79;35.68
14790;BME280;7486;51.010;10.366;2022-09-01T12:11:59;98729.88;;;20.63;35.01
14790;BME280;7486;51.010;10.366;2022-09-01T12:14:26;98752.84;;;20.76;36.11
14790;BME280;7486;51.010;10.366;2022-09-01T12:17:19;98720.28;;;20.09;34.92
14790;BME280;7486;51.010;10.366;2022-09-01T12:19:45;98683.69;;;19.28;35.73
14790;BME280;7486;51.010;10.366;2022-09-01T12:22:17;98760.28;;;19.79;36.04
14790;BME280;7486;51.010;10.366;2022-09-01T12:24:47;98703.22;;;19.23;35.26
14790;BME280;7486;51.010;10.366;2022-09-01T12:27:14;98707.53;;;18.86;36.11
14790;BME280;7486;51.010;10.366;2022-09-01T12:29:41;98719.84;;;19.20;37.21
14790;BME280;7486;51.010;10.366;2022-09-01T12:32:09;98700.34;;;19.51;35.64
14790;BME280;7486;51.010;10.366;2022-09-01T12:35:00;98754.09;;;20.00;33.46
14790;BME280;7486;51.010;10.366;2022-09-01T12:37:34;98686.63;;;19.53;35.89
14790;BME280;7486;51.010;10.366;2022-09-01T12:40:01;98706.38;;;19.63;35.64
14790;BME280;7486;51.010;10.366;2022-09-01T12:42:31;98751.94;;;20.02;35.06
14790;BME280;7486;51.010;10.366;2022-09-01T12:45:08;98727.91;;;19.42;36.65
14790;BME280;7486;51.010;10.366;2022-09-01T12:50:06;98761.06;;;18.76;38.56
14790;BME280;7486;51.010;10.366;2022-09-01T12:52:35;98748.75;;;18.41;40.15
14790;BME280;7486;51.010;10.366;2022-09-01T12:58:08;98722.84;;;18.85;38.55
14790;BME280;7486;51.010;10.366;2022-09-01T13:00:53;98754.38;;;18.95;38.56
14790;BME280;7486;51.010;10.366;2022-09-01T13:03:20;98752.88;;;19.20;38.67
14790;BME280;7486;51.010;10.366;2022-09-01T13:05:53;98750.69;;;19.39;37.60
14790;BME280;7486;51.010;10.366;2022-09-01T13:08:33;98685.19;;;19.02;37.15
14790;BME280;7486;51.010;10.366;2022-09-01T13:11:08;98717.00;;;19.32;37.19
14790;BME280;7486;51.010;10.366;2022-09-01T13:13:37;98713.03;;;19.12;37.63
14790;BME280;7486;51.010;10.366;2022-09-01T13:16:04;98691.66;;;19.22;37.52
14790;BME280;7486;51.010;10.366;2022-09-01T13:18:31;98686.16;;;19.12;37.09
14790;BME280;7486;51.010;10.366;2022-09-01T13:20:59;98713.50;;;19.53;38.06
14790;BME280;7486;51.010;10.366;2022-09-01T13:23:26;98673.81;;;19.60;36.26
14790;BME280;7486;51.010;10.366;2022-09-01T13:25:52;98634.56;;;19.10;36.34
14790;BME280;7486;51.010;10.366;2022-09-01T13:28:19;98721.75;;;19.46;36.35
14790;BME280;7486;51.010;10.366;2022-09-01T13:30:51;98730.50;;;19.15;37.04
14790;BME280;7486;51.010;10.366;2022-09-01T13:33:39;98695.31;;;18.95;37.39
14790;BME280;7486;51.010;10.366;2022-09-01T13:36:26;98604.38;;;18.38;36.83
14790;BME280;7486;51.010;10.366;2022-09-01T13:39:13;98666.88;;;18.39;37.71
14790;BME280;7486;51.010;10.366;2022-09-01T13:41:40;98676.53;;;18.40;36.97
14790;BME280;7486;51.010;10.366;2022-09-01T13:44:07;98636.88;;;18.08;37.73
14790;BME280;7486;51.010;10.366;2022-09-01T13:46:34;98649.19;;;18.04;38.06
14790;BME280;7486;51.010;10.366;2022-09-01T13:49:21;98668.28;;;18.08;38.12
14790;BME280;7486;51.010;10.366;2022-09-01T13:52:08;98692.13;;;17.93;38.23
14790;BME280;7486;51.010;10.366;2022-09-01T13:54:34;98731.69;;;18.02;39.46
14790;BME280;7486;51.010;10.366;2022-09-01T13:57:01;98675.97;;;17.88;38.66
14790;BME280;7486;51.010;10.366;2022-09-01T13:59:28;98697.59;;;18.14;38.38
14790;BME280;7486;51.010;10.366;2022-09-01T14:01:55;98717.19;;;18.15;38.34
14790;BME280;7486;51.010;10.366;2022-09-01T14:04:22;98651.75;;;17.83;38.23
14790;BME280;7486;51.010;10.366;2022-09-01T14:06:48;98730.81;;;18.30;38.68
14790;BME280;7486;51.010;10.366;2022-09-01T14:09:15;98614.56;;;17.69;38.06
14790;BME280;7486;51.010;10.366;2022-09-01T14:11:43;98644.09;;;17.91;38.31
14790;BME280;7486;51.010;10.366;2022-09-01T14:14:10;98653.13;;;18.02;37.66
14790;BME280;7486;51.010;10.366;2022-09-01T14:16:37;98683.19;;;18.37;37.70
14790;BME280;7486;51.010;10.366;2022-09-01T14:19:04;98631.44;;;18.20;37.54
14790;BME280;7486;51.010;10.366;2022-09-01T14:21:31;98571.41;;;17.54;36.62
14790;BME280;7486;51.010;10.366;2022-09-01T14:23:58;98597.59;;;17.81;36.80
14790;BME280;7486;51.010;10.366;2022-09-01T14:26:25;98656.47;;;18.25;36.87
14790;BME280;7486;51.010;10.366;2022-09-01T14:28:53;98678.16;;;18.24;36.66
14790;BME280;7486;51.010;10.366;2022-09-01T14:31:20;98641.34;;;18.36;35.85
14790;BME280;7486;51.010;10.366;2022-09-01T14:33:47;98706.75;;;18.68;36.67